Time;durP1;ratioP1;P1;durP2;ratioP2;P2;SDS_P1;SDS_P2;PMS_P1;PMS_P2;Temp;Humidity;BMP_temperature;BMP_pressure;BME280_temperature;BME280_humidity;BME280_pressure;Samples;Min_cycle;Max_cycle;Signal;HPM_P1;HPM_P2
2021/05/29 00:04:00;;;;;;;21.70;13.20;;;;;;;;;;10266292;28;20088;-71
2021/05/29 00:08:56;;;;;;;18.73;12.32;;;;;;;;;;10259570;28;20075;-68
2021/05/29 00:13:53;;;;;;;19.88;11.93;;;;;;;;;;10271352;28;20052;-69
2021/05/29 00:18:49;;;;;;;17.80;13.15;;;;;;;;;;10264184;28;20099;-70
2021/05/29 00:23:47;;;;;;;28.20;15.90;;;;;;;;;;10278996;28;20555;-71
2021/05/29 00:28:43;;;;;;;32.40;18.30;;;;;;;;;;10272032;28;20045;-70
2021/05/29 00:33:39;;;;;;;24.45;16.95;;;;;;;;;;10281302;28;20044;-71
2021/05/29 00:38:35;;;;;;;23.75;17.42;;;;;;;;;;10266006;28;20144;-70
2021/05/29 00:43:32;;;;;;;23.02;16.67;;;;;;;;;;10263602;28;20124;-70
2021/05/29 00:48:28;;;;;;;24.67;17.60;;;;;;;;;;10266247;28;20415;-70
2021/05/29 00:53:29;;;;;;;24.00;16.73;;;;;;;;;;10263278;28;20045;-70
2021/05/29 00:58:26;;;;;;;19.50;14.95;;;;;;;;;;10266912;28;20438;-71
2021/05/29 01:03:22;;;;;;;21.05;13.02;;;;;;;;;;10275864;28;20076;-70
2021/05/29 01:08:22;;;;;;;22.45;11.95;;;;;;;;;;10260119;28;20049;-67
2021/05/29 01:13:22;;;;;;;17.60;11.93;;;;;;;;;;10271227;28;20159;-69
2021/05/29 01:18:19;;;;;;;17.45;10.73;;;;;;;;;;10269652;28;20168;-69
2021/05/29 01:23:15;;;;;;;19.23;12.52;;;;;;;;;;10264518;28;20491;-68
2021/05/29 01:28:15;;;;;;;21.90;13.25;;;;;;;;;;10278285;28;20114;-68
2021/05/29 01:33:12;;;;;;;22.52;16.17;;;;;;;;;;10277620;28;20060;-69
2021/05/29 01:38:11;;;;;;;20.27;14.30;;;;;;;;;;10268589;28;20051;-69
2021/05/29 01:43:08;;;;;;;25.85;16.02;;;;;;;;;;10273728;28;20128;-67
2021/05/29 01:48:05;;;;;;;23.45;14.95;;;;;;;;;;10262094;28;20131;-68
2021/05/29 01:53:04;;;;;;;23.30;13.75;;;;;;;;;;10275996;28;20152;-67
2021/05/29 01:58:02;;;;;;;21.60;13.10;;;;;;;;;;10267111;28;20132;-71
2021/05/29 02:02:59;;;;;;;22.88;14.35;;;;;;;;;;10272405;28;20036;-70
2021/05/29 02:07:58;;;;;;;20.90;13.57;;;;;;;;;;10267273;28;20044;-67
2021/05/29 02:12:55;;;;;;;22.20;14.23;;;;;;;;;;10279131;28;20109;-68
2021/05/29 02:17:53;;;;;;;22.40;13.63;;;;;;;;;;10265181;28;20131;-68
2021/05/29 02:22:49;;;;;;;20.40;13.30;;;;;;;;;;10270254;28;20465;-67
2021/05/29 02:27:45;;;;;;;16.15;10.52;;;;;;;;;;10279259;28;20144;-67
2021/05/29 02:32:42;;;;;;;17.27;9.27;;;;;;;;;;10264546;28;20128;-69
2021/05/29 02:37:39;;;;;;;21.00;10.25;;;;;;;;;;10278825;28;20055;-68
2021/05/29 02:42:35;;;;;;;18.23;10.23;;;;;;;;;;10272561;28;20079;-68
2021/05/29 02:47:32;;;;;;;20.30;11.48;;;;;;;;;;10261726;28;20071;-68
2021/05/29 02:52:28;;;;;;;15.40;8.50;;;;;;;;;;10273263;28;20467;-69
2021/05/29 02:57:25;;;;;;;19.15;8.75;;;;;;;;;;10263562;28;20633;-69
2021/05/29 03:02:21;;;;;;;17.10;9.00;;;;;;;;;;10264240;28;20125;-69
2021/05/29 03:07:18;;;;;;;16.75;10.32;;;;;;;;;;10268705;28;20049;-70
2021/05/29 03:12:14;;;;;;;16.48;9.60;;;;;;;;;;10276452;28;20542;-69
2021/05/29 03:17:11;;;;;;;14.60;9.70;;;;;;;;;;10269509;28;20155;-71
2021/05/29 03:22:07;;;;;;;15.57;9.75;;;;;;;;;;10266407;28;20050;-69
2021/05/29 03:27:03;;;;;;;14.90;9.85;;;;;;;;;;10264787;28;20395;-70
2021/05/29 03:32:00;;;;;;;17.83;10.93;;;;;;;;;;10263012;28;20389;-69
2021/05/29 03:36:56;;;;;;;21.77;13.10;;;;;;;;;;10264616;28;20045;-69
2021/05/29 03:41:53;;;;;;;24.55;17.73;;;;;;;;;;10266460;28;20130;-69
2021/05/29 03:46:50;;;;;;;25.65;17.80;;;;;;;;;;10267233;28;20491;-69
2021/05/29 03:51:46;;;;;;;25.77;19.25;;;;;;;;;;10257577;28;20691;-68
2021/05/29 03:56:42;;;;;;;28.20;20.85;;;;;;;;;;10267761;28;20567;-69
2021/05/29 04:01:39;;;;;;;32.65;24.92;;;;;;;;;;10261010;28;20145;-70
2021/05/29 04:06:36;;;;;;;38.67;26.15;;;;;;;;;;10269754;28;20037;-69
2021/05/29 04:11:32;;;;;;;31.55;23.10;;;;;;;;;;10266508;28;20108;-68
2021/05/29 04:16:29;;;;;;;27.92;21.55;;;;;;;;;;10272507;28;20049;-68
2021/05/29 04:21:26;;;;;;;29.60;22.10;;;;;;;;;;10262468;28;20149;-68
2021/05/29 04:26:22;;;;;;;33.45;23.30;;;;;;;;;;10279692;28;20510;-70
2021/05/29 04:31:19;;;;;;;32.72;22.98;;;;;;;;;;10265551;28;20159;-71
2021/05/29 04:36:15;;;;;;;31.25;23.50;;;;;;;;;;10267251;28;20136;-68
2021/05/29 04:41:11;;;;;;;30.13;23.10;;;;;;;;;;10274743;28;20561;-67
2021/05/29 04:46:08;;;;;;;29.25;21.60;;;;;;;;;;10276142;28;20121;-67
2021/05/29 04:51:14;;;;;;;32.65;23.95;;;;;;;;;;10278420;28;20063;-67
2021/05/29 04:56:12;;;;;;;30.58;24.30;;;;;;;;;;10273541;28;20573;-67
2021/05/29 05:01:10;;;;;;;32.22;24.70;;;;;;;;;;10278486;28;20041;-67
2021/05/29 05:06:11;;;;;;;31.42;21.73;;;;;;;;;;10270403;28;20167;-67
2021/05/29 05:11:07;;;;;;;22.13;15.25;;;;;;;;;;10270465;28;20129;-68
2021/05/29 05:16:04;;;;;;;25.98;17.65;;;;;;;;;;10281437;28;20793;-68
2021/05/29 05:21:00;;;;;;;22.52;15.52;;;;;;;;;;10270145;28;20101;-68
2021/05/29 05:25:56;;;;;;;23.27;16.67;;;;;;;;;;10257709;28;20069;-67
2021/05/29 05:30:53;;;;;;;19.15;14.10;;;;;;;;;;10277078;28;20076;-67
2021/05/29 05:35:50;;;;;;;21.02;13.63;;;;;;;;;;10277814;28;20051;-69
2021/05/29 05:40:46;;;;;;;22.50;15.93;;;;;;;;;;10280139;28;20041;-68
2021/05/29 05:45:43;;;;;;;18.00;14.00;;;;;;;;;;10277786;28;20048;-68
2021/05/29 05:50:52;;;;;;;21.33;14.02;;;;;;;;;;10269657;28;20127;-68
2021/05/29 05:55:55;;;;;;;21.52;11.75;;;;;;;;;;10266799;28;20120;-68
2021/05/29 06:00:52;;;;;;;;;;;;;;;;;;10271920;28;20057;-71
2021/05/29 06:05:48;;;;;;;21.75;15.30;;;;;;;;;;10269747;28;20406;-71
2021/05/29 06:10:44;;;;;;;26.15;16.15;;;;;;;;;;10279041;28;20136;-71
2021/05/29 06:20:56;;;;;;;22.85;16.83;;;;;;;;;;10268593;28;20396;-71
2021/05/29 06:25:52;;;;;;;25.38;18.08;;;;;;;;;;10266755;28;20414;-69
2021/05/29 06:30:49;;;;;;;23.42;17.50;;;;;;;;;;10261672;28;20076;-70
2021/05/29 06:35:45;;;;;;;22.98;15.80;;;;;;;;;;10268821;28;20073;-69
2021/05/29 06:40:42;;;;;;;25.70;18.85;;;;;;;;;;10269069;28;20135;-68
2021/05/29 06:45:39;;;;;;;21.75;16.17;;;;;;;;;;10267246;28;20506;-69
2021/05/29 06:50:36;;;;;;;23.38;14.35;;;;;;;;;;10266118;28;20450;-69
2021/05/29 07:01:07;;;;;;;16.83;10.37;;;;;;;;;;10152115;28;20046;-70
2021/05/29 07:06:03;;;;;;;16.25;9.80;;;;;;;;;;10231914;28;20071;-69
2021/05/29 07:11:00;;;;;;;13.63;8.45;;;;;;;;;;10259108;28;20135;-70
2021/05/29 07:15:56;;;;;;;13.45;7.80;;;;;;;;;;10274321;28;20040;-69
2021/05/29 07:20:53;;;;;;;10.73;7.00;;;;;;;;;;10263571;28;20055;-69
2021/05/29 07:25:56;;;;;;;9.10;5.50;;;;;;;;;;10268817;28;20058;-69
2021/05/29 07:30:52;;;;;;;10.00;5.90;;;;;;;;;;10264047;28;20064;-69
2021/05/29 07:35:48;;;;;;;12.32;6.35;;;;;;;;;;10261515;28;20069;-69
2021/05/29 07:40:45;;;;;;;10.20;6.60;;;;;;;;;;10260016;28;20464;-70
2021/05/29 07:45:41;;;;;;;10.75;5.53;;;;;;;;;;10265428;28;20044;-70
2021/05/29 07:50:57;;;;;;;10.70;5.50;;;;;;;;;;10263576;28;20049;-69
2021/05/29 07:55:54;;;;;;;9.32;4.97;;;;;;;;;;10254943;28;20164;-70
2021/05/29 08:00:51;;;;;;;9.75;4.90;;;;;;;;;;10261262;28;20055;-72
2021/05/29 08:05:50;;;;;;;13.80;5.50;;;;;;;;;;10265425;28;20049;-70
2021/05/29 08:10:48;;;;;;;11.30;5.53;;;;;;;;;;10276233;28;20052;-71
2021/05/29 08:15:45;;;;;;;11.95;5.30;;;;;;;;;;10269682;28;20494;-69
2021/05/29 08:20:43;;;;;;;8.80;4.50;;;;;;;;;;10253921;28;20087;-68
2021/05/29 08:25:39;;;;;;;10.15;5.47;;;;;;;;;;10253758;28;20506;-68
2021/05/29 08:30:36;;;;;;;16.02;8.32;;;;;;;;;;10263771;28;20478;-70
2021/05/29 08:35:33;;;;;;;13.05;8.00;;;;;;;;;;10263823;28;20045;-67
2021/05/29 08:40:29;;;;;;;12.80;8.60;;;;;;;;;;10258618;28;20045;-70
2021/05/29 08:45:25;;;;;;;10.50;6.20;;;;;;;;;;10268830;28;20136;-67
2021/05/29 08:50:22;;;;;;;11.35;5.63;;;;;;;;;;10260334;28;20076;-68
2021/05/29 08:55:18;;;;;;;11.15;4.70;;;;;;;;;;10265441;28;20098;-68
2021/05/29 09:00:16;;;;;;;9.77;4.70;;;;;;;;;;10262433;28;20061;-70
2021/05/29 09:05:13;;;;;;;9.85;4.70;;;;;;;;;;10263874;28;20128;-70
2021/05/29 09:10:17;;;;;;;12.52;5.03;;;;;;;;;;10265457;28;20138;-69
2021/05/29 09:15:13;;;;;;;8.48;4.45;;;;;;;;;;10264598;28;20045;-69
2021/05/29 09:20:10;;;;;;;10.40;3.92;;;;;;;;;;10265033;28;20084;-70
2021/05/29 09:25:09;;;;;;;6.35;3.60;;;;;;;;;;10261804;28;20080;-70
2021/05/29 09:30:07;;;;;;;8.75;4.30;;;;;;;;;;10256888;28;20110;-69
2021/05/29 09:35:08;;;;;;;7.85;3.53;;;;;;;;;;10256029;28;20488;-70
2021/05/29 09:40:06;;;;;;;10.52;5.25;;;;;;;;;;10250802;28;20604;-69
2021/05/29 09:45:19;;;;;;;9.63;5.63;;;;;;;;;;10264216;28;20073;-69
2021/05/29 09:50:17;;;;;;;11.30;7.63;;;;;;;;;;10253288;28;20124;-69
2021/05/29 09:55:14;;;;;;;8.98;4.90;;;;;;;;;;10256001;28;20325;-68
2021/05/29 10:00:10;;;;;;;7.50;4.78;;;;;;;;;;10256590;28;20045;-69
2021/05/29 10:05:26;;;;;;;8.30;4.53;;;;;;;;;;10258076;28;20045;-69
2021/05/29 10:10:22;;;;;;;9.48;5.20;;;;;;;;;;10266161;28;20120;-69
2021/05/29 10:15:19;;;;;;;10.57;6.38;;;;;;;;;;10262929;28;20068;-69
2021/05/29 10:20:15;;;;;;;9.07;5.00;;;;;;;;;;10261403;28;20087;-71
2021/05/29 10:25:13;;;;;;;8.27;5.00;;;;;;;;;;10261945;28;20040;-69
2021/05/29 10:30:10;;;;;;;12.90;6.47;;;;;;;;;;10264673;28;20045;-69
2021/05/29 10:35:07;;;;;;;9.07;5.50;;;;;;;;;;10258495;28;20509;-70
2021/05/29 10:40:15;;;;;;;13.90;5.82;;;;;;;;;;10256313;28;20073;-70
2021/05/29 10:45:13;;;;;;;8.10;5.05;;;;;;;;;;10262543;28;20052;-70
2021/05/29 10:50:09;;;;;;;9.65;5.82;;;;;;;;;;10266353;28;20117;-70
2021/05/29 10:55:12;;;;;;;8.10;4.50;;;;;;;;;;10256916;28;20045;-71
2021/05/29 11:00:28;;;;;;;12.20;5.30;;;;;;;;;;10255906;28;20137;-70
2021/05/29 11:05:34;;;;;;;13.93;6.65;;;;;;;;;;10256870;28;20976;-70
2021/05/29 11:10:30;;;;;;;8.63;5.15;;;;;;;;;;10265895;28;20136;-71
2021/05/29 11:15:46;;;;;;;8.02;4.03;;;;;;;;;;10257167;28;20040;-70
2021/05/29 11:21:01;;;;;;;7.05;3.95;;;;;;;;;;10256684;28;20507;-70
2021/05/29 11:25:58;;;;;;;9.02;3.95;;;;;;;;;;10264187;28;20148;-69
2021/05/29 11:30:58;;;;;;;8.43;3.92;;;;;;;;;;10265580;28;20045;-70
2021/05/29 11:35:54;;;;;;;7.88;4.68;;;;;;;;;;10264116;28;20048;-70
2021/05/29 11:41:08;;;;;;;7.35;4.45;;;;;;;;;;10257545;28;20082;-70
2021/05/29 11:46:06;;;;;;;9.05;4.10;;;;;;;;;;10255000;28;20045;-71
2021/05/29 11:51:10;;;;;;;8.13;4.10;;;;;;;;;;10261431;28;20084;-70
2021/05/29 11:56:06;;;;;;;;;;;;;;;;;;10265051;28;20164;-69
2021/05/29 12:01:03;;;;;;;7.90;5.40;;;;;;;;;;10267244;28;20019;-70
2021/05/29 12:05:59;;;;;;;6.97;4.50;;;;;;;;;;10268444;28;20045;-67
2021/05/29 12:10:55;;;;;;;11.27;5.80;;;;;;;;;;10259927;28;20136;-67
2021/05/29 12:15:53;;;;;;;11.07;5.43;;;;;;;;;;10261866;28;20069;-66
2021/05/29 12:20:56;;;;;;;14.02;7.57;;;;;;;;;;10251007;28;20048;-67
2021/05/29 12:25:53;;;;;;;;;;;;;;;;;;10251833;28;20065;-66
2021/05/29 12:30:52;;;;;;;11.25;7.18;;;;;;;;;;10218275;28;19925;-66
2021/05/29 12:36:02;;;;;;;12.05;6.78;;;;;;;;;;10226406;28;20137;-66
2021/05/29 12:41:00;;;;;;;13.35;7.45;;;;;;;;;;10235686;28;20049;-67
2021/05/29 12:45:56;;;;;;;13.50;6.65;;;;;;;;;;10225323;28;20133;-66
2021/05/29 12:51:28;;;;;;;12.15;6.78;;;;;;;;;;10219016;28;20045;-69
2021/05/29 12:56:18;;;;;;;10.53;5.80;;;;;;;;;;10221308;28;20128;-70
2021/05/29 13:01:27;;;;;;;9.73;5.85;;;;;;;;;;10226960;28;20471;-69
2021/05/29 13:11:38;;;;;;;13.38;6.80;;;;;;;;;;10231526;28;20129;-70
2021/05/29 13:17:03;;;;;;;9.60;5.97;;;;;;;;;;10232988;28;20072;-72
2021/05/29 13:22:01;;;;;;;8.48;5.90;;;;;;;;;;10221099;28;20111;-71
2021/05/29 13:26:57;;;;;;;12.48;6.60;;;;;;;;;;10231280;28;20128;-71
2021/05/29 13:31:54;;;;;;;10.43;6.25;;;;;;;;;;10214319;28;20578;-70
2021/05/29 13:36:50;;;;;;;9.32;6.32;;;;;;;;;;10232598;28;20045;-71
2021/05/29 13:41:47;;;;;;;10.10;7.55;;;;;;;;;;10228333;28;20081;-71
2021/05/29 13:46:43;;;;;;;14.32;8.43;;;;;;;;;;10234897;28;20088;-70
2021/05/29 13:51:40;;;;;;;13.20;8.95;;;;;;;;;;10236973;28;20076;-70
2021/05/29 13:56:36;;;;;;;11.88;8.75;;;;;;;;;;10230283;28;20099;-71
2021/05/29 14:01:34;;;;;;;12.02;8.50;;;;;;;;;;10238368;28;20044;-71
2021/05/29 14:06:34;;;;;;;11.10;8.70;;;;;;;;;;10227788;28;20041;-70
2021/05/29 14:11:34;;;;;;;14.52;9.73;;;;;;;;;;10236503;28;20049;-69
2021/05/29 14:16:31;;;;;;;11.82;8.75;;;;;;;;;;10224121;28;20053;-68
2021/05/29 14:21:28;;;;;;;13.07;8.23;;;;;;;;;;10238022;28;20072;-69
2021/05/29 14:26:29;;;;;;;11.73;8.10;;;;;;;;;;10229406;28;20046;-68
2021/05/29 14:31:26;;;;;;;12.07;8.50;;;;;;;;;;10237306;28;20135;-69
2021/05/29 14:36:25;;;;;;;10.18;7.47;;;;;;;;;;10228864;28;20154;-67
2021/05/29 14:41:22;;;;;;;12.38;8.15;;;;;;;;;;10214279;28;20475;-67
2021/05/29 14:46:19;;;;;;;14.00;8.48;;;;;;;;;;10228951;28;20144;-67
2021/05/29 14:51:20;;;;;;;11.10;7.53;;;;;;;;;;10233202;28;20091;-67
2021/05/29 14:56:17;;;;;;;11.48;8.27;;;;;;;;;;10231001;28;20162;-67
2021/05/29 15:01:14;;;;;;;10.68;7.40;;;;;;;;;;10236571;28;20056;-67
2021/05/29 15:06:10;;;;;;;10.70;7.50;;;;;;;;;;10229980;28;20061;-69
2021/05/29 15:11:07;;;;;;;8.88;6.88;;;;;;;;;;10234569;28;20067;-67
2021/05/29 15:16:03;;;;;;;8.80;6.43;;;;;;;;;;10232238;28;20499;-68
2021/05/29 15:21:11;;;;;;;9.65;6.45;;;;;;;;;;10231171;28;20033;-68
2021/05/29 15:26:10;;;;;;;10.90;6.80;;;;;;;;;;10221035;28;20064;-67
2021/05/29 15:31:07;;;;;;;7.90;6.10;;;;;;;;;;10241556;28;21020;-68
2021/05/29 15:36:04;;;;;;;15.27;6.32;;;;;;;;;;10236802;28;21124;-68
2021/05/29 15:41:00;;;;;;;8.15;5.15;;;;;;;;;;10232556;28;20087;-67
2021/05/29 15:45:57;;;;;;;9.32;5.53;;;;;;;;;;10217261;28;20465;-67
2021/05/29 15:51:06;;;;;;;11.18;5.35;;;;;;;;;;10224753;28;20124;-67
2021/05/29 15:56:03;;;;;;;7.72;5.38;;;;;;;;;;10228803;28;20132;-68
2021/05/29 16:01:00;;;;;;;10.43;5.75;;;;;;;;;;10236910;28;20037;-69
2021/05/29 16:05:58;;;;;;;8.40;5.55;;;;;;;;;;10224275;28;20406;-69
2021/05/29 16:10:55;;;;;;;8.35;6.00;;;;;;;;;;10226852;28;20049;-68
2021/05/29 16:15:51;;;;;;;7.97;4.82;;;;;;;;;;10226377;28;20113;-68
2021/05/29 16:20:47;;;;;;;10.70;6.55;;;;;;;;;;10233744;28;20037;-68
2021/05/29 16:25:44;;;;;;;8.88;5.22;;;;;;;;;;10226076;28;20083;-68
2021/05/29 16:30:40;;;;;;;8.85;5.93;;;;;;;;;;10230388;28;20815;-67
2021/05/29 16:35:43;;;;;;;8.52;5.43;;;;;;;;;;10219218;28;20525;-68
2021/05/29 16:40:39;;;;;;;9.30;5.72;;;;;;;;;;10237058;28;20720;-68
2021/05/29 16:45:36;;;;;;;9.70;5.60;;;;;;;;;;10227273;28;20125;-69
2021/05/29 16:50:33;;;;;;;8.45;5.75;;;;;;;;;;10228994;28;20458;-68
2021/05/29 16:55:29;;;;;;;8.57;5.82;;;;;;;;;;10228362;28;21042;-67
2021/05/29 17:00:26;;;;;;;10.70;5.18;;;;;;;;;;10223227;28;20133;-66
2021/05/29 17:05:25;;;;;;;12.27;6.20;;;;;;;;;;10228290;28;20503;-66
2021/05/29 17:10:21;;;;;;;8.15;5.18;;;;;;;;;;10224411;28;20053;-67
2021/05/29 17:15:17;;;;;;;10.25;5.80;;;;;;;;;;10216357;28;20143;-66
2021/05/29 17:20:14;;;;;;;8.75;5.20;;;;;;;;;;10206087;28;20045;-66
2021/05/29 17:25:10;;;;;;;13.57;6.50;;;;;;;;;;10224634;28;20582;-66
2021/05/29 17:30:07;;;;;;;10.43;6.05;;;;;;;;;;10225251;28;20461;-66
2021/05/29 17:35:04;;;;;;;10.40;6.90;;;;;;;;;;10208877;28;20063;-67
2021/05/29 17:40:00;;;;;;;10.60;5.72;;;;;;;;;;10260910;28;20044;-66
2021/05/29 17:44:57;;;;;;;9.25;5.93;;;;;;;;;;10261100;28;20053;-66
2021/05/29 17:49:53;;;;;;;8.63;5.20;;;;;;;;;;10266554;28;20131;-66
2021/05/29 17:54:49;;;;;;;10.27;7.00;;;;;;;;;;10268639;28;20571;-69
2021/05/29 17:59:51;;;;;;;10.85;6.82;;;;;;;;;;10279110;28;20697;-70
2021/05/29 18:04:48;;;;;;;13.38;6.45;;;;;;;;;;10279185;28;20065;-69
2021/05/29 18:09:45;;;;;;;12.93;7.18;;;;;;;;;;10274798;28;20072;-69
2021/05/29 18:14:41;;;;;;;11.07;8.00;;;;;;;;;;10267779;28;20041;-68
2021/05/29 18:19:38;;;;;;;12.60;6.07;;;;;;;;;;10273899;28;20080;-69
2021/05/29 18:24:34;;;;;;;12.63;7.43;;;;;;;;;;10270649;28;20037;-69
2021/05/29 18:29:31;;;;;;;12.77;7.15;;;;;;;;;;10279957;28;20470;-68
2021/05/29 18:34:27;;;;;;;13.40;7.07;;;;;;;;;;10272930;28;20446;-69
2021/05/29 18:39:24;;;;;;;12.43;6.88;;;;;;;;;;10266504;28;20124;-69
2021/05/29 18:44:25;;;;;;;17.55;8.07;;;;;;;;;;10273072;28;20497;-69
2021/05/29 18:49:21;;;;;;;9.70;5.25;;;;;;;;;;10269709;28;20045;-69
2021/05/29 18:54:18;;;;;;;13.45;6.70;;;;;;;;;;10266802;28;20092;-69
2021/05/29 19:04:18;;;;;;;10.55;6.93;;;;;;;;;;10263007;28;20037;-68
2021/05/29 19:09:18;;;;;;;13.95;7.30;;;;;;;;;;10264094;28;20067;-70
2021/05/29 19:14:15;;;;;;;15.05;6.97;;;;;;;;;;10273568;28;20091;-69
2021/05/29 19:19:11;;;;;;;13.48;7.45;;;;;;;;;;10271229;28;20048;-68
2021/05/29 19:29:05;;;;;;;11.75;6.75;;;;;;;;;;10273600;28;20033;-69
2021/05/29 19:39:22;;;;;;;15.40;6.78;;;;;;;;;;10267412;28;20057;-71
2021/05/29 19:44:27;;;;;;;11.52;6.38;;;;;;;;;;10273021;28;20053;-71
2021/05/29 20:26:12;;;;;;;17.45;9.75;;;;;;;;;;10262732;28;20071;-70
2021/05/29 20:31:09;;;;;;;17.98;9.32;;;;;;;;;;10272259;28;20051;-70
2021/05/29 20:36:05;;;;;;;24.17;10.57;;;;;;;;;;10271103;28;20048;-70
2021/05/29 20:41:01;;;;;;;19.17;10.90;;;;;;;;;;10271925;28;20044;-70
2021/05/29 20:46:01;;;;;;;16.20;9.50;;;;;;;;;;10274717;28;20037;-70
2021/05/29 20:51:00;;;;;;;19.00;9.27;;;;;;;;;;10240757;28;20059;-71
2021/05/29 20:55:56;;;;;;;14.30;9.65;;;;;;;;;;10261894;28;20313;-70
2021/05/29 21:00:53;;;;;;;15.48;8.57;;;;;;;;;;10267247;28;20036;-70
2021/05/29 21:05:50;;;;;;;13.38;8.73;;;;;;;;;;10271362;28;20355;-70
2021/05/29 21:10:46;;;;;;;16.02;7.45;;;;;;;;;;10265965;28;20676;-70
2021/05/29 21:15:47;;;;;;;23.05;8.55;;;;;;;;;;10273667;28;20098;-71
2021/05/29 21:26:11;;;;;;;23.38;11.95;;;;;;;;;;10251288;28;20041;-70
2021/05/29 21:31:07;;;;;;;20.50;10.23;;;;;;;;;;10275809;28;20608;-70
2021/05/29 21:36:04;;;;;;;23.63;11.98;;;;;;;;;;10283293;28;20052;-73
2021/05/29 21:41:01;;;;;;;22.05;11.30;;;;;;;;;;10267301;28;20074;-70
2021/05/29 21:51:12;;;;;;;19.85;10.13;;;;;;;;;;10263640;28;20468;-71
2021/05/29 21:56:09;;;;;;;14.55;9.27;;;;;;;;;;10266188;28;20049;-71
2021/05/29 22:01:18;;;;;;;16.73;8.75;;;;;;;;;;10276373;28;20045;-70
2021/05/29 22:06:14;;;;;;;19.38;10.45;;;;;;;;;;10274746;28;20044;-69
2021/05/29 22:21:37;;;;;;;13.40;7.95;;;;;;;;;;10274809;28;20048;-67
2021/05/29 22:31:49;;;;;;;25.30;12.15;;;;;;;;;;10270379;28;20095;-70
2021/05/29 22:36:46;;;;;;;25.17;13.93;;;;;;;;;;10278167;28;20067;-71
2021/05/29 22:41:42;;;;;;;20.38;12.25;;;;;;;;;;10270113;28;20064;-73
2021/05/29 22:46:39;;;;;;;20.05;11.77;;;;;;;;;;10273483;28;20076;-74
2021/05/29 22:51:36;;;;;;;21.00;11.27;;;;;;;;;;10273715;28;20041;-73
2021/05/29 22:56:32;;;;;;;20.80;10.13;;;;;;;;;;10269857;28;20114;-74
2021/05/29 23:01:29;;;;;;;18.50;9.57;;;;;;;;;;10268040;28;20040;-72
2021/05/29 23:06:29;;;;;;;19.58;9.25;;;;;;;;;;10286589;28;20045;-68
2021/05/29 23:11:25;;;;;;;17.83;10.05;;;;;;;;;;10282592;28;20555;-68
2021/05/29 23:16:22;;;;;;;17.88;10.13;;;;;;;;;;10271946;28;20074;-67
2021/05/29 23:21:18;;;;;;;15.93;9.20;;;;;;;;;;10264578;28;20095;-68
2021/05/29 23:26:14;;;;;;;17.15;10.88;;;;;;;;;;10269300;28;20087;-67
2021/05/29 23:31:11;;;;;;;16.00;9.43;;;;;;;;;;10278748;28;20086;-70
2021/05/29 23:36:07;;;;;;;19.73;9.95;;;;;;;;;;10278674;28;20127;-69
2021/05/29 23:41:04;;;;;;;17.40;8.93;;;;;;;;;;10267821;28;20041;-70
2021/05/29 23:46:00;;;;;;;17.88;9.85;;;;;;;;;;10267340;28;20041;-70
2021/05/29 23:50:57;;;;;;;15.27;8.75;;;;;;;;;;10267722;28;20347;-71
2021/05/29 23:55:53;;;;;;;18.00;10.18;;;;;;;;;;10260474;28;20053;-71
